Time,TemperatureF,DewpointF,PressureIn,WindDirection,WindDirectionDegrees,WindSpeedMPH,WindSpeedGustMPH,Humidity,HourlyPrecipIn,Conditions,Clouds,dailyrainin,SolarRadiationWatts/m^2,SoftwareType,DateUTC
2013-02-09 00:01:00,28.0,13.0,-100.00,East,98,0.0,4.0,53,0.00,,,0.00,0.000000,,2013-02-09 08:01:00,
2013-02-09 00:11:00,28.0,13.0,-100.00,East,98,0.0,4.0,53,0.00,,,0.00,0.000000,,2013-02-09 08:11:00,
2013-02-09 00:42:00,29.0,14.0,-100.00,SE,145,0.0,0.0,52,0.00,,,0.00,0.000000,,2013-02-09 08:42:00,
2013-02-09 00:52:00,29.0,14.0,-100.00,SE,145,0.0,0.0,52,0.00,,,0.00,0.000000,,2013-02-09 08:52:00,
2013-02-09 01:02:00,29.0,14.0,-100.00,SE,145,0.0,0.0,52,0.00,,,0.00,0.000000,,2013-02-09 09:02:00,
2013-02-09 01:11:00,29.0,14.0,-100.00,SE,145,0.0,0.0,52,0.00,,,0.00,0.000000,,2013-02-09 09:11:00,
2013-02-09 01:42:00,29.0,14.0,-100.00,South,174,0.0,0.0,52,0.00,,,0.00,0.000000,,2013-02-09 09:42:00,
2013-02-09 01:52:00,29.0,14.0,-100.00,South,174,0.0,0.0,52,0.00,,,0.00,0.000000,,2013-02-09 09:52:00,
2013-02-09 02:01:00,29.0,14.0,-100.00,South,174,0.0,0.0,52,0.00,,,0.00,0.000000,,2013-02-09 10:01:00,
2013-02-09 02:11:00,29.0,14.0,-100.00,South,174,0.0,0.0,52,0.00,,,0.00,0.000000,,2013-02-09 10:11:00,
2013-02-09 02:32:00,28.0,12.0,-100.00,ESE,108,0.0,0.0,51,0.00,,,0.00,0.000000,,2013-02-09 10:32:00,
2013-02-09 02:42:00,28.0,12.0,-100.00,ESE,108,0.0,0.0,51,0.00,,,0.00,0.000000,,2013-02-09 10:42:00,
2013-02-09 02:52:00,28.0,12.0,-100.00,ESE,108,0.0,0.0,51,0.00,,,0.00,0.000000,,2013-02-09 10:52:00,
2013-02-09 03:01:00,28.0,12.0,-100.00,ESE,108,0.0,0.0,51,0.00,,,0.00,0.000000,,2013-02-09 11:01:00,
2013-02-09 03:32:00,29.0,12.0,-100.00,SE,140,0.0,0.0,48,0.00,,,0.00,0.000000,,2013-02-09 11:32:00,
2013-02-09 03:42:00,29.0,12.0,-100.00,SE,140,0.0,0.0,48,0.00,,,0.00,0.000000,,2013-02-09 11:42:00,
2013-02-09 03:52:00,29.0,12.0,-100.00,SE,140,0.0,0.0,48,0.00,,,0.00,0.000000,,2013-02-09 11:52:00,
2013-02-09 04:02:00,29.0,12.0,-100.00,SE,140,0.0,0.0,48,0.00,,,0.00,0.000000,,2013-02-09 12:02:00,
2013-02-09 04:42:00,28.0,13.0,-100.00,SSW,213,0.0,2.0,52,0.00,,,0.00,0.000000,,2013-02-09 12:42:00,
2013-02-09 04:52:00,28.0,13.0,-100.00,SSW,213,0.0,2.0,52,0.00,,,0.00,0.000000,,2013-02-09 12:52:00,
2013-02-09 05:02:00,28.0,13.0,-100.00,SSW,213,0.0,2.0,52,0.00,,,0.00,0.000000,,2013-02-09 13:02:00,
2013-02-09 05:42:00,27.0,12.0,-100.00,WSW,239,0.0,4.0,53,0.00,,,0.00,0.000000,,2013-02-09 13:42:00,
2013-02-09 05:52:00,27.0,12.0,-100.00,WSW,239,0.0,4.0,53,0.00,,,0.00,0.000000,,2013-02-09 13:52:00,
2013-02-09 06:01:00,27.0,12.0,-100.00,WSW,239,0.0,4.0,53,0.00,,,0.00,0.000000,,2013-02-09 14:01:00,
2013-02-09 06:42:00,29.0,20.0,-100.00,ENE,70,1.0,4.0,68,0.00,,,0.00,0.000000,,2013-02-09 14:42:00,
2013-02-09 06:52:00,29.0,20.0,-100.00,ENE,70,1.0,4.0,68,0.00,,,0.00,0.000000,,2013-02-09 14:52:00,
2013-02-09 07:01:00,29.0,20.0,-100.00,ENE,70,1.0,4.0,68,0.00,,,0.00,0.000000,,2013-02-09 15:01:00,
2013-02-09 07:11:00,29.0,20.0,-100.00,ENE,70,1.0,4.0,68,0.00,,,0.00,0.000000,,2013-02-09 15:11:00,
2013-02-09 07:32:00,29.0,16.0,-100.00,NW,325,0.0,16.0,57,0.00,,,0.00,3.000000,,2013-02-09 15:32:00,
2013-02-09 07:42:00,29.0,16.0,-100.00,NW,325,0.0,16.0,57,0.00,,,0.00,3.000000,,2013-02-09 15:42:00,
2013-02-09 07:52:00,29.0,16.0,-100.00,NW,325,0.0,16.0,57,0.00,,,0.00,3.000000,,2013-02-09 15:52:00,
2013-02-09 08:01:00,29.0,16.0,-100.00,NW,325,0.0,16.0,57,0.00,,,0.00,3.000000,,2013-02-09 16:01:00,
2013-02-09 08:11:00,29.0,16.0,-100.00,NW,325,0.0,16.0,57,0.00,,,0.00,3.000000,,2013-02-09 16:11:00,
2013-02-09 08:32:00,38.0,25.0,-100.00,SSW,203,4.0,14.0,59,0.00,,,0.00,88.000000,,2013-02-09 16:32:00,
2013-02-09 08:42:00,38.0,25.0,-100.00,SSW,203,4.0,14.0,59,0.00,,,0.00,88.000000,,2013-02-09 16:42:00,
2013-02-09 08:52:00,38.0,25.0,-100.00,SSW,203,4.0,14.0,59,0.00,,,0.00,88.000000,,2013-02-09 16:52:00,
2013-02-09 09:01:00,38.0,25.0,-100.00,SSW,203,4.0,14.0,59,0.00,,,0.00,88.000000,,2013-02-09 17:01:00,
2013-02-09 09:32:00,38.0,22.0,-100.00,ESE,111,2.0,17.0,53,-99.99,,,0.00,139.000000,,2013-02-09 17:32:00,
2013-02-09 09:42:00,38.0,22.0,-100.00,ESE,111,2.0,17.0,53,-99.99,,,0.00,139.000000,,2013-02-09 17:42:00,
2013-02-09 09:52:00,38.0,22.0,-100.00,ESE,111,2.0,17.0,53,-99.99,,,0.00,139.000000,,2013-02-09 17:52:00,
2013-02-09 10:01:00,38.0,22.0,-100.00,ESE,111,2.0,17.0,53,-99.99,,,0.00,139.000000,,2013-02-09 18:01:00,
2013-02-09 10:32:00,41.0,22.0,-100.00,WSW,245,1.0,12.0,47,0.00,,,0.00,334.000000,,2013-02-09 18:32:00,
2013-02-09 10:42:00,41.0,22.0,-100.00,WSW,245,1.0,12.0,47,0.00,,,0.00,334.000000,,2013-02-09 18:42:00,
2013-02-09 10:52:00,41.0,22.0,-100.00,WSW,245,1.0,12.0,47,0.00,,,0.00,334.000000,,2013-02-09 18:52:00,
2013-02-09 11:01:00,41.0,22.0,-100.00,WSW,245,1.0,12.0,47,0.00,,,0.00,334.000000,,2013-02-09 19:01:00,
2013-02-09 11:42:00,48.0,26.0,-100.00,ENE,59,1.0,7.0,42,-99.99,,,0.00,604.000000,,2013-02-09 19:42:00,
2013-02-09 11:52:00,48.0,26.0,-100.00,ENE,59,1.0,7.0,42,-99.99,,,0.00,604.000000,,2013-02-09 19:52:00,
2013-02-09 12:01:00,48.0,26.0,-100.00,ENE,59,1.0,7.0,42,-99.99,,,0.00,604.000000,,2013-02-09 20:01:00,
2013-02-09 12:32:00,44.0,24.0,-100.00,WSW,241,3.0,7.0,45,-99.99,,,0.00,617.000000,,2013-02-09 20:32:00,
2013-02-09 12:42:00,44.0,24.0,-100.00,WSW,241,3.0,7.0,45,-99.99,,,0.00,617.000000,,2013-02-09 20:42:00,
2013-02-09 12:52:00,44.0,24.0,-100.00,WSW,241,3.0,7.0,45,-99.99,,,0.00,617.000000,,2013-02-09 20:52:00,
2013-02-09 13:01:00,44.0,24.0,-100.00,WSW,241,3.0,7.0,45,-99.99,,,0.00,617.000000,,2013-02-09 21:01:00,
2013-02-09 13:42:00,45.0,25.0,-100.00,WSW,252,1.0,8.0,46,-99.99,,,0.00,395.000000,,2013-02-09 21:42:00,
2013-02-09 13:52:00,45.0,25.0,-100.00,WSW,252,1.0,8.0,46,-99.99,,,0.00,395.000000,,2013-02-09 21:52:00,
2013-02-09 14:01:00,45.0,25.0,-100.00,WSW,252,1.0,8.0,46,-99.99,,,0.00,395.000000,,2013-02-09 22:01:00,
2013-02-09 14:32:00,46.0,26.0,-100.00,West,271,1.0,6.0,46,-99.99,,,0.00,393.000000,,2013-02-09 22:32:00,
2013-02-09 14:42:00,46.0,26.0,-100.00,West,271,1.0,6.0,46,-99.99,,,0.00,393.000000,,2013-02-09 22:42:00,
2013-02-09 14:52:00,46.0,26.0,-100.00,West,271,1.0,6.0,46,-99.99,,,0.00,393.000000,,2013-02-09 22:52:00,
2013-02-09 15:01:00,46.0,26.0,-100.00,West,271,1.0,6.0,46,-99.99,,,0.00,393.000000,,2013-02-09 23:01:00,
2013-02-09 15:42:00,42.0,25.0,-100.00,NE,38,1.0,8.0,51,-99.99,,,0.00,238.000000,,2013-02-09 23:42:00,
2013-02-09 15:52:00,42.0,25.0,-100.00,NE,38,1.0,8.0,51,-99.99,,,0.00,238.000000,,2013-02-09 23:52:00,
2013-02-09 16:02:00,42.0,25.0,-100.00,NE,38,1.0,8.0,51,-99.99,,,0.00,238.000000,,2013-02-10 00:02:00,
2013-02-09 16:11:00,42.0,25.0,-100.00,NE,38,1.0,8.0,51,-99.99,,,0.00,238.000000,,2013-02-10 00:11:00,
2013-02-09 16:42:00,39.0,24.0,-100.00,North,352,0.0,7.0,54,0.00,,,0.00,94.000000,,2013-02-10 00:42:00,
2013-02-09 16:52:00,39.0,24.0,-100.00,North,352,0.0,7.0,54,0.00,,,0.00,94.000000,,2013-02-10 00:52:00,
2013-02-09 17:01:00,39.0,24.0,-100.00,North,352,0.0,7.0,54,0.00,,,0.00,94.000000,,2013-02-10 01:01:00,
2013-02-09 17:11:00,39.0,24.0,-100.00,North,352,0.0,7.0,54,0.00,,,0.00,94.000000,,2013-02-10 01:11:00,
2013-02-09 17:42:00,33.0,22.0,-100.00,ENE,71,7.0,16.0,64,0.00,,,0.00,15.000000,,2013-02-10 01:42:00,
2013-02-09 17:52:00,33.0,22.0,-100.00,ENE,71,7.0,16.0,64,0.00,,,0.00,15.000000,,2013-02-10 01:52:00,
2013-02-09 18:01:00,33.0,22.0,-100.00,ENE,71,7.0,16.0,64,0.00,,,0.00,15.000000,,2013-02-10 02:01:00,
2013-02-09 18:11:00,33.0,22.0,-100.00,ENE,71,7.0,16.0,64,0.00,,,0.00,15.000000,,2013-02-10 02:11:00,
2013-02-09 18:42:00,33.0,24.0,-100.00,NE,51,2.0,14.0,70,0.00,,,0.00,0.000000,,2013-02-10 02:42:00,
2013-02-09 18:52:00,33.0,24.0,-100.00,NE,51,2.0,14.0,70,0.00,,,0.00,0.000000,,2013-02-10 02:52:00,
2013-02-09 19:01:00,33.0,24.0,-100.00,NE,51,2.0,14.0,70,0.00,,,0.00,0.000000,,2013-02-10 03:01:00,
2013-02-09 19:11:00,33.0,24.0,-100.00,NE,51,2.0,14.0,70,0.00,,,0.00,0.000000,,2013-02-10 03:11:00,
2013-02-09 19:42:00,34.0,23.0,-100.00,NE,48,0.0,7.0,65,0.00,,,0.00,0.000000,,2013-02-10 03:42:00,
2013-02-09 19:52:00,34.0,23.0,-100.00,NE,48,0.0,7.0,65,0.00,,,0.00,0.000000,,2013-02-10 03:52:00,
2013-02-09 20:01:00,34.0,23.0,-100.00,NE,48,0.0,7.0,65,0.00,,,0.00,0.000000,,2013-02-10 04:01:00,
2013-02-09 20:11:00,34.0,23.0,-100.00,NE,48,0.0,7.0,65,0.00,,,0.00,0.000000,,2013-02-10 04:11:00,
2013-02-09 20:42:00,33.0,25.0,-100.00,SSW,199,0.0,3.0,71,0.00,,,-99.99,0.000000,,2013-02-10 04:42:00,
2013-02-09 20:52:00,33.0,25.0,-100.00,SSW,199,0.0,3.0,71,0.00,,,-99.99,0.000000,,2013-02-10 04:52:00,
2013-02-09 21:01:00,33.0,25.0,-100.00,SSW,199,0.0,3.0,71,0.00,,,-99.99,0.000000,,2013-02-10 05:01:00,
2013-02-09 21:11:00,33.0,25.0,-100.00,SSW,199,0.0,3.0,71,0.00,,,-99.99,0.000000,,2013-02-10 05:11:00,
2013-02-09 21:32:00,31.0,26.0,-100.00,SSE,166,0.0,4.0,81,0.00,,,0.00,0.000000,,2013-02-10 05:32:00,
2013-02-09 21:42:00,31.0,26.0,-100.00,SSE,166,0.0,4.0,81,0.00,,,0.00,0.000000,,2013-02-10 05:42:00,
2013-02-09 21:52:00,31.0,26.0,-100.00,SSE,166,0.0,4.0,81,0.00,,,0.00,0.000000,,2013-02-10 05:52:00,
2013-02-09 22:01:00,31.0,26.0,-100.00,SSE,166,0.0,4.0,81,0.00,,,0.00,0.000000,,2013-02-10 06:01:00,
2013-02-09 22:11:00,31.0,26.0,-100.00,SSE,166,0.0,4.0,81,0.00,,,0.00,0.000000,,2013-02-10 06:11:00,
2013-02-09 22:42:00,30.0,27.0,-100.00,SE,142,0.0,3.0,89,0.00,,,0.00,0.000000,,2013-02-10 06:42:00,
2013-02-09 22:52:00,30.0,27.0,-100.00,SE,142,0.0,3.0,89,0.00,,,0.00,0.000000,,2013-02-10 06:52:00,
2013-02-09 23:01:00,30.0,27.0,-100.00,SE,142,0.0,3.0,89,0.00,,,0.00,0.000000,,2013-02-10 07:01:00,
2013-02-09 23:11:00,30.0,27.0,-100.00,SE,142,0.0,3.0,89,0.00,,,0.00,0.000000,,2013-02-10 07:11:00,
2013-02-09 23:42:00,29.0,29.0,-100.00,East,83,0.0,0.0,100,0.00,,,0.00,0.000000,,2013-02-10 07:42:00,
2013-02-09 23:52:00,29.0,29.0,-100.00,East,83,0.0,0.0,100,0.00,,,0.00,0.000000,,2013-02-10 07:52:00,